createdAt,value
2018-09-02T00:01:03.214Z,5.95
2018-09-02T00:03:31.610Z,6.30
2018-09-02T00:05:59.966Z,5.90
2018-09-02T00:08:28.328Z,5.40
2018-09-02T00:10:56.678Z,5.65
2018-09-02T00:13:25.054Z,5.87
2018-09-02T00:15:53.405Z,5.85
2018-09-02T00:18:21.796Z,6.20
2018-09-02T00:20:50.174Z,6.17
2018-09-02T00:23:18.486Z,5.42
2018-09-02T00:25:46.915Z,5.90
2018-09-02T00:28:15.260Z,5.75
2018-09-02T00:30:43.661Z,5.53
2018-09-02T00:33:12.005Z,4.90
2018-09-02T00:35:40.355Z,5.15
2018-09-02T00:38:08.758Z,4.97
2018-09-02T00:40:37.103Z,5.60
2018-09-02T00:43:05.905Z,5.45
2018-09-02T00:45:34.254Z,5.50
2018-09-02T00:48:02.608Z,5.00
2018-09-02T00:50:31.035Z,5.65
2018-09-02T00:52:59.424Z,5.03
2018-09-02T00:55:27.817Z,5.00
2018-09-02T00:57:56.235Z,5.03
2018-09-02T01:00:24.548Z,5.45
2018-09-02T01:02:52.885Z,5.40
2018-09-02T01:05:21.221Z,4.53
2018-09-02T01:07:49.658Z,5.35
2018-09-02T01:10:18.000Z,5.10
2018-09-02T01:12:46.820Z,5.45
2018-09-02T01:15:15.196Z,5.70
2018-09-02T01:17:43.649Z,5.62
2018-09-02T01:20:11.968Z,5.85
2018-09-02T01:22:40.259Z,6.10
2018-09-02T01:25:08.979Z,6.83
2018-09-02T01:27:37.296Z,6.72
2018-09-02T01:30:05.939Z,5.40
2018-09-02T01:32:34.360Z,5.75
2018-09-02T01:35:02.677Z,5.85
2018-09-02T01:37:31.007Z,5.75
2018-09-02T01:39:59.341Z,5.60
2018-09-02T01:42:27.780Z,5.90
2018-09-02T01:44:56.146Z,6.50
2018-09-02T01:47:24.479Z,6.00
2018-09-02T01:49:52.804Z,6.00
2018-09-02T01:52:21.204Z,5.95
2018-09-02T01:54:49.541Z,5.80
2018-09-02T01:57:17.897Z,5.72
2018-09-02T01:59:46.336Z,5.25
2018-09-02T02:02:14.792Z,5.50
2018-09-02T02:04:43.516Z,5.47
2018-09-02T02:07:13.558Z,5.50
2018-09-02T02:09:42.363Z,5.28
2018-09-02T02:12:10.709Z,4.85
2018-09-02T02:14:39.061Z,6.05
2018-09-02T02:17:07.437Z,5.20
2018-09-02T02:19:36.171Z,5.92
2018-09-02T02:22:04.499Z,5.45
2018-09-02T02:24:32.950Z,5.28
2018-09-02T02:27:01.317Z,5.65
2018-09-02T02:29:29.830Z,5.22
2018-09-02T02:31:58.589Z,5.67
2018-09-02T02:34:26.959Z,6.05
2018-09-02T02:36:55.324Z,5.60
2018-09-02T02:39:23.730Z,6.83
2018-09-02T02:41:52.151Z,6.12
2018-09-02T02:44:20.549Z,6.00
2018-09-02T02:46:48.891Z,6.35
2018-09-02T02:49:17.335Z,5.53
2018-09-02T02:51:45.775Z,6.75
2018-09-02T02:54:14.184Z,5.83
2018-09-02T02:56:42.615Z,6.10
2018-09-02T02:59:11.032Z,5.80
2018-09-02T03:01:39.648Z,5.85
2018-09-02T03:04:07.981Z,6.05
2018-09-02T03:06:36.489Z,5.58
2018-09-02T03:09:06.409Z,5.37
2018-09-02T03:11:34.778Z,5.62
2018-09-02T03:14:03.608Z,5.33
2018-09-02T03:16:31.923Z,5.72
2018-09-02T03:19:00.227Z,6.22
2018-09-02T03:21:28.578Z,5.50
2018-09-02T03:23:56.976Z,5.28
2018-09-02T03:26:25.326Z,5.28
2018-09-02T03:28:53.643Z,5.28
2018-09-02T03:31:22.048Z,5.15
2018-09-02T03:33:50.376Z,5.50
2018-09-02T03:36:18.834Z,5.58
2018-09-02T03:38:47.198Z,5.70
2018-09-02T03:41:15.524Z,5.78
2018-09-02T03:43:44.317Z,5.80
2018-09-02T03:46:12.652Z,6.92
2018-09-02T03:48:40.964Z,6.53
2018-09-02T03:51:09.289Z,5.92
2018-09-02T03:53:37.654Z,6.60
2018-09-02T03:56:06.178Z,6.78
2018-09-02T03:58:34.738Z,6.37
2018-09-02T04:01:03.225Z,7.20
2018-09-02T04:03:31.617Z,6.30
2018-09-02T04:05:59.992Z,6.60
2018-09-02T04:08:28.821Z,6.40
2018-09-02T04:10:57.144Z,6.80
2018-09-02T04:13:25.486Z,6.97
2018-09-02T04:15:53.824Z,7.10
2018-09-02T04:18:22.244Z,6.53
2018-09-02T04:20:50.639Z,6.37
2018-09-02T04:23:18.996Z,5.95
2018-09-02T04:25:47.371Z,6.22
2018-09-02T04:28:15.876Z,6.22
2018-09-02T04:30:44.280Z,5.70
2018-09-02T04:33:12.675Z,6.22
2018-09-02T04:35:41.001Z,6.45
2018-09-02T04:38:09.355Z,6.30
2018-09-02T04:40:37.733Z,6.75
2018-09-02T04:43:06.100Z,6.47
2018-09-02T04:45:34.486Z,5.67
2018-09-02T04:48:02.829Z,6.12
2018-09-02T04:50:31.180Z,6.37
2018-09-02T04:52:59.493Z,6.08
2018-09-02T04:55:27.875Z,6.05
2018-09-02T04:57:56.312Z,5.75
2018-09-02T05:00:24.976Z,6.40
2018-09-02T05:02:53.317Z,6.03
2018-09-02T05:05:21.650Z,6.55
2018-09-02T05:07:49.990Z,6.92
2018-09-02T05:10:18.311Z,7.10
2018-09-02T05:12:46.764Z,6.22
2018-09-02T05:15:15.183Z,5.87
2018-09-02T05:17:43.666Z,6.37
2018-09-02T05:20:12.002Z,6.42
2018-09-02T05:22:40.376Z,5.92
2018-09-02T05:25:08.766Z,6.97
2018-09-02T05:27:37.125Z,6.58
2018-09-02T05:30:06.260Z,7.42
2018-09-02T05:32:34.586Z,7.08
2018-09-02T05:35:02.980Z,7.58
2018-09-02T05:37:31.333Z,7.90
2018-09-02T05:39:59.657Z,5.72
2018-09-02T05:42:27.986Z,7.10
2018-09-02T05:44:56.344Z,6.80
2018-09-02T05:47:24.769Z,6.53
2018-09-02T05:49:53.117Z,6.80
2018-09-02T05:52:21.470Z,7.12
2018-09-02T05:54:50.028Z,6.80
2018-09-02T05:57:18.468Z,6.75
2018-09-02T05:59:46.840Z,6.35
2018-09-02T06:02:15.261Z,6.22
2018-09-02T06:04:43.641Z,5.70
2018-09-02T06:07:12.006Z,5.40
2018-09-02T06:09:40.759Z,5.55
2018-09-02T06:12:09.215Z,5.50
2018-09-02T06:14:39.161Z,5.20
2018-09-02T06:17:07.547Z,4.97
2018-09-02T06:19:35.909Z,5.35
2018-09-02T06:22:04.248Z,4.67
2018-09-02T06:24:32.834Z,4.83
2018-09-02T06:27:01.186Z,4.83
2018-09-02T06:29:29.521Z,5.22
2018-09-02T06:31:57.889Z,4.72
2018-09-02T06:34:26.244Z,5.53
2018-09-02T06:36:54.673Z,4.87
2018-09-02T06:39:24.124Z,4.95
2018-09-02T06:41:52.539Z,4.90
2018-09-02T06:44:20.868Z,5.05
2018-09-02T06:46:49.228Z,4.60
2018-09-02T06:49:17.573Z,4.92
2018-09-02T06:51:45.940Z,4.15
2018-09-02T06:54:14.372Z,4.97
2018-09-02T06:56:42.855Z,4.60
2018-09-02T06:59:11.197Z,4.58
2018-09-02T07:01:39.608Z,4.78
2018-09-02T07:04:07.965Z,4.37
2018-09-02T07:06:36.327Z,4.55
2018-09-02T07:09:05.053Z,4.62
2018-09-02T07:11:33.440Z,4.62
2018-09-02T07:14:01.842Z,4.10
2018-09-02T07:16:30.257Z,4.97
2018-09-02T07:18:58.640Z,4.42
2018-09-02T07:21:27.217Z,4.90
2018-09-02T07:23:55.901Z,4.47
2018-09-02T07:26:24.263Z,4.65
2018-09-02T07:28:52.926Z,4.60
2018-09-02T07:31:21.521Z,4.90
2018-09-02T07:33:50.024Z,4.50
2018-09-02T07:36:18.575Z,4.67
2018-09-02T07:38:48.254Z,4.97
2018-09-02T07:41:16.707Z,5.65
2018-09-02T07:43:45.315Z,5.10
2018-09-02T07:46:13.629Z,5.25
2018-09-02T07:48:41.993Z,4.40
2018-09-02T07:51:11.321Z,5.08
2018-09-02T07:53:39.689Z,5.17
2018-09-02T07:56:08.158Z,4.70
2018-09-02T07:58:36.596Z,5.20
2018-09-02T08:01:05.123Z,5.75
2018-09-02T08:03:33.711Z,5.78
2018-09-02T08:06:02.099Z,4.65
2018-09-02T08:08:30.548Z,5.62
2018-09-02T08:10:58.932Z,4.80
2018-09-02T08:13:27.296Z,5.17
2018-09-02T08:15:55.871Z,4.83
2018-09-02T08:18:24.285Z,5.30
2018-09-02T08:20:52.801Z,5.22
2018-09-02T08:23:21.304Z,5.65
2018-09-02T08:25:49.702Z,5.20
2018-09-02T08:28:18.157Z,5.40
2018-09-02T08:30:46.665Z,5.50
2018-09-02T08:33:15.136Z,5.08
2018-09-02T08:35:43.856Z,5.28
2018-09-02T08:38:12.267Z,4.72
2018-09-02T08:40:40.871Z,4.97
2018-09-02T08:43:09.247Z,4.97
2018-09-02T08:45:37.662Z,5.00
2018-09-02T08:48:06.218Z,5.83
2018-09-02T08:50:34.957Z,5.40
2018-09-02T08:53:03.414Z,4.87
2018-09-02T08:55:31.849Z,5.05
2018-09-02T08:58:01.328Z,4.58
2018-09-02T09:00:30.053Z,5.20
2018-09-02T09:02:58.429Z,5.10
2018-09-02T09:05:26.993Z,5.35
2018-09-02T09:07:55.400Z,5.05
2018-09-02T09:10:23.942Z,5.12
2018-09-02T09:12:52.709Z,4.87
2018-09-02T09:15:21.145Z,4.83
2018-09-02T09:17:49.640Z,4.70
2018-09-02T09:20:18.182Z,4.85
2018-09-02T09:22:46.784Z,4.87
2018-09-02T09:25:15.321Z,4.92
2018-09-02T09:27:43.891Z,5.70
2018-09-02T09:30:12.379Z,4.83
2018-09-02T09:32:40.940Z,5.67
2018-09-02T09:35:09.708Z,5.20
2018-09-02T09:37:39.352Z,4.80
2018-09-02T09:40:08.097Z,5.20
2018-09-02T09:42:36.595Z,4.53
2018-09-02T09:45:05.026Z,5.20
2018-09-02T09:47:33.848Z,4.92
2018-09-02T09:50:02.315Z,5.05
2018-09-02T09:52:30.867Z,5.95
2018-09-02T09:54:59.380Z,5.25
2018-09-02T09:57:28.132Z,5.40
2018-09-02T09:59:57.282Z,4.53
2018-09-02T10:02:25.733Z,5.28
2018-09-02T10:04:54.244Z,5.60
2018-09-02T10:07:22.773Z,5.50
2018-09-02T10:09:51.169Z,5.37
2018-09-02T10:12:19.595Z,5.72
2018-09-02T10:14:48.093Z,4.90
2018-09-02T10:17:16.797Z,5.28
2018-09-02T10:19:45.203Z,5.97
2018-09-02T10:22:13.929Z,5.05
2018-09-02T10:24:42.609Z,5.78
2018-09-02T10:27:11.266Z,5.30
2018-09-02T10:29:39.980Z,5.97
2018-09-02T10:32:08.874Z,5.17
2018-09-02T10:34:37.356Z,5.45
2018-09-02T10:37:05.878Z,5.47
2018-09-02T10:39:35.184Z,6.10
2018-09-02T10:42:03.700Z,6.03
2018-09-02T10:44:32.028Z,5.65
2018-09-02T10:47:01.048Z,5.15
2018-09-02T10:49:29.502Z,6.03
2018-09-02T10:51:57.817Z,5.47
2018-09-02T10:54:26.333Z,4.72
2018-09-02T10:56:54.719Z,5.33
2018-09-02T10:59:23.132Z,5.35
2018-09-02T11:01:51.575Z,5.92
2018-09-02T11:04:20.349Z,5.40
2018-09-02T11:06:49.073Z,4.97
2018-09-02T11:09:17.803Z,5.78
2018-09-02T11:11:46.471Z,5.25
2018-09-02T11:14:15.076Z,5.40
2018-09-02T11:16:43.741Z,5.10
2018-09-02T11:19:12.237Z,6.08
2018-09-02T11:21:40.555Z,5.35
2018-09-02T11:24:08.878Z,6.47
2018-09-02T11:26:37.243Z,5.10
2018-09-02T11:29:05.639Z,4.97
2018-09-02T11:31:33.970Z,4.35
2018-09-02T11:34:02.455Z,4.60
2018-09-02T11:36:30.877Z,5.78
2018-09-02T11:38:59.304Z,5.97
2018-09-02T11:41:27.626Z,4.87
2018-09-02T11:43:55.946Z,4.30
2018-09-02T11:46:24.439Z,4.05
2018-09-02T11:48:52.797Z,4.45
2018-09-02T11:51:21.148Z,4.72
2018-09-02T11:53:50.026Z,4.42
2018-09-02T11:56:19.224Z,4.40
2018-09-02T11:58:48.716Z,4.70
2018-09-02T12:01:17.506Z,5.28
2018-09-02T12:03:46.640Z,5.42
2018-09-02T12:06:15.191Z,5.40
2018-09-02T12:08:43.628Z,5.70
2018-09-02T12:11:11.974Z,4.28
2018-09-02T12:13:40.238Z,4.40
2018-09-02T12:16:08.641Z,4.05
2018-09-02T12:18:37.276Z,3.83
2018-09-02T12:21:05.584Z,2.83
2018-09-02T12:23:34.061Z,3.47
2018-09-02T12:26:02.389Z,3.42
2018-09-02T12:28:30.757Z,3.67
2018-09-02T12:30:59.082Z,2.67
2018-09-02T12:33:27.462Z,3.08
2018-09-02T12:35:55.758Z,2.62
2018-09-02T12:38:24.126Z,2.90
2018-09-02T12:40:53.405Z,3.40
2018-09-02T12:43:21.687Z,3.50
2018-09-02T12:45:50.060Z,3.52
2018-09-02T12:48:18.723Z,3.17
2018-09-02T12:50:46.750Z,2.75
2018-09-02T12:53:15.075Z,2.90
2018-09-02T12:55:43.515Z,3.30
2018-09-02T12:58:11.925Z,3.67
2018-09-02T13:00:40.392Z,3.55
2018-09-02T13:03:08.755Z,3.58
2018-09-02T13:05:37.179Z,3.70
2018-09-02T13:08:05.525Z,3.95
2018-09-02T13:10:33.850Z,3.30
2018-09-02T13:13:02.473Z,3.67
2018-09-02T13:15:30.876Z,3.62
2018-09-02T13:17:59.208Z,3.40
2018-09-02T13:20:27.590Z,3.40
2018-09-02T13:22:55.909Z,3.45
2018-09-02T13:25:24.291Z,3.45
2018-09-02T13:27:52.682Z,3.10
2018-09-02T13:30:21.004Z,2.90
2018-09-02T13:32:49.450Z,3.67
2018-09-02T13:35:17.750Z,3.27
2018-09-02T13:37:46.945Z,2.98
2018-09-02T13:40:15.555Z,3.17
2018-09-02T13:42:43.921Z,2.62
2018-09-02T13:45:12.221Z,3.08
2018-09-02T13:47:40.648Z,2.70
2018-09-02T13:50:08.938Z,2.80
2018-09-02T13:52:37.341Z,2.62
2018-09-02T13:55:05.829Z,3.10
2018-09-02T13:57:34.139Z,2.92
2018-09-02T14:00:02.602Z,2.90
2018-09-02T14:02:30.907Z,3.02
2018-09-02T14:04:59.228Z,2.80
2018-09-02T14:07:27.534Z,3.08
2018-09-02T14:09:55.860Z,2.80
2018-09-02T14:12:24.200Z,2.55
2018-09-02T14:14:52.541Z,2.80
2018-09-02T14:17:21.115Z,2.65
2018-09-02T14:19:49.757Z,2.55
2018-09-02T14:22:18.817Z,3.05
2018-09-02T14:24:47.525Z,2.65
2018-09-02T14:27:16.196Z,3.08
2018-09-02T14:29:44.582Z,2.62
2018-09-02T14:32:13.036Z,2.52
2018-09-02T14:34:42.441Z,2.33
2018-09-02T14:37:10.773Z,2.62
2018-09-02T14:39:39.076Z,2.98
2018-09-02T14:42:07.404Z,3.00
2018-09-02T14:44:35.918Z,3.00
2018-09-02T14:47:04.203Z,2.83
2018-09-02T14:49:32.542Z,2.65
2018-09-02T14:52:01.042Z,2.55
2018-09-02T14:54:29.385Z,2.87
2018-09-02T14:56:57.674Z,2.90
2018-09-02T14:59:26.008Z,2.60
2018-09-02T15:01:54.329Z,2.40
2018-09-02T15:04:22.845Z,2.70
2018-09-02T15:06:51.583Z,2.47
2018-09-02T15:09:20.721Z,3.10
2018-09-02T15:11:49.645Z,2.58
2018-09-02T15:14:18.696Z,2.42
2018-09-02T15:16:47.756Z,2.50
2018-09-02T15:19:17.184Z,2.55
2018-09-02T15:21:46.007Z,2.58
2018-09-02T15:24:14.592Z,2.75
2018-09-02T15:26:43.129Z,2.47
2018-09-02T15:29:11.851Z,2.55
2018-09-02T15:31:40.485Z,2.27
2018-09-02T15:34:09.231Z,2.60
2018-09-02T15:36:37.873Z,2.42
2018-09-02T15:39:08.601Z,2.62
2018-09-02T15:41:36.969Z,3.08
2018-09-02T15:44:05.395Z,2.77
2018-09-02T15:46:33.620Z,2.90
2018-09-02T15:49:02.200Z,2.55
2018-09-02T15:51:30.527Z,2.20
2018-09-02T15:53:58.833Z,2.27
2018-09-02T15:56:27.134Z,2.62
2018-09-02T15:58:55.465Z,3.05
2018-09-02T16:01:23.831Z,3.27
2018-09-02T16:03:52.136Z,2.92
2018-09-02T16:06:20.544Z,3.20
2018-09-02T16:08:49.060Z,3.10
2018-09-02T16:11:17.655Z,3.00
2018-09-02T16:13:46.157Z,2.92
2018-09-02T16:16:16.265Z,2.50
2018-09-02T16:18:46.376Z,2.33
2018-09-02T16:21:15.613Z,2.55
2018-09-02T16:23:44.528Z,2.92
2018-09-02T16:26:13.576Z,3.40
2018-09-02T16:28:42.497Z,6.50
2018-09-02T16:31:12.221Z,5.12
2018-09-02T16:33:41.695Z,4.28
2018-09-02T16:36:11.225Z,3.45
2018-09-02T16:38:39.560Z,3.17
2018-09-02T16:41:08.157Z,3.55
2018-09-02T16:43:36.974Z,2.92
2018-09-02T16:46:05.596Z,3.10
2018-09-02T16:48:34.048Z,2.70
2018-09-02T16:51:02.375Z,2.83
2018-09-02T16:53:30.670Z,2.98
2018-09-02T16:55:59.008Z,3.25
2018-09-02T16:58:27.326Z,3.27
2018-09-02T17:00:55.710Z,3.27
2018-09-02T17:03:28.557Z,3.33
2018-09-02T17:05:57.081Z,3.20
2018-09-02T17:08:25.500Z,3.42
2018-09-02T17:10:53.856Z,3.50
2018-09-02T17:13:22.367Z,3.50
2018-09-02T17:15:50.841Z,3.17
2018-09-02T17:18:19.513Z,3.40
2018-09-02T17:20:50.341Z,3.52
2018-09-02T17:23:19.162Z,3.90
2018-09-02T17:25:47.653Z,4.37
2018-09-02T17:28:16.489Z,3.22
2018-09-02T17:30:45.179Z,3.50
2018-09-02T17:33:14.464Z,3.25
2018-09-02T17:35:43.040Z,2.62
2018-09-02T17:38:11.392Z,2.72
2018-09-02T17:40:40.054Z,3.20
2018-09-02T17:43:08.488Z,3.02
2018-09-02T17:45:38.561Z,3.75
2018-09-02T17:48:08.096Z,2.60
2018-09-02T17:50:36.550Z,2.90
2018-09-02T17:53:05.689Z,3.17
2018-09-02T17:55:34.356Z,2.77
2018-09-02T17:58:03.292Z,3.08
2018-09-02T18:00:40.721Z,2.77
2018-09-02T18:03:09.565Z,3.42
2018-09-02T18:05:38.174Z,2.58
2018-09-02T18:08:07.195Z,3.25
2018-09-02T18:10:37.038Z,2.45
2018-09-02T18:13:06.045Z,3.05
2018-09-02T18:15:34.501Z,3.20
2018-09-02T18:18:03.221Z,2.72
2018-09-02T18:20:32.420Z,3.52
2018-09-02T18:23:01.402Z,3.47
2018-09-02T18:25:29.990Z,2.87
2018-09-02T18:28:01.160Z,2.60
2018-09-02T18:30:30.004Z,2.60
2018-09-02T18:32:59.152Z,2.70
2018-09-02T18:35:28.236Z,2.83
2018-09-02T18:37:57.086Z,3.08
2018-09-02T18:40:26.525Z,4.15
2018-09-02T18:42:55.656Z,3.50
2018-09-02T18:45:24.657Z,3.20
2018-09-02T18:47:54.220Z,3.62
2018-09-02T18:50:23.438Z,3.02
2018-09-02T18:52:52.886Z,2.75
2018-09-02T18:55:21.921Z,3.10
2018-09-02T18:58:10.188Z,2.70
2018-09-02T19:00:40.244Z,3.30
2018-09-02T19:03:09.571Z,2.87
2018-09-02T19:05:38.165Z,3.37
2018-09-02T19:08:07.185Z,3.22
2018-09-02T19:10:37.134Z,3.45
2018-09-02T19:13:07.127Z,3.52
2018-09-02T19:15:35.868Z,3.35
2018-09-02T19:18:04.797Z,3.17
2018-09-02T19:20:33.994Z,3.27
2018-09-02T19:23:02.889Z,3.50
2018-09-02T19:25:31.461Z,3.42
2018-09-02T19:28:00.136Z,3.52
2018-09-02T19:30:29.063Z,3.47
2018-09-02T19:32:58.502Z,3.10
2018-09-02T19:35:27.193Z,3.55
2018-09-02T19:37:55.579Z,3.67
2018-09-02T19:40:23.976Z,3.70
2018-09-02T19:42:52.294Z,3.60
2018-09-02T19:45:21.342Z,4.20
2018-09-02T19:47:50.232Z,3.65
2018-09-02T19:50:19.264Z,3.80
2018-09-02T19:52:47.952Z,3.80
2018-09-02T19:55:16.342Z,3.62
2018-09-02T19:57:44.864Z,3.98
2018-09-02T20:00:15.474Z,4.03
2018-09-02T20:02:44.159Z,4.30
2018-09-02T20:05:15.885Z,4.05
2018-09-02T20:07:49.183Z,3.95
2018-09-02T20:10:18.335Z,4.70
2018-09-02T20:12:48.056Z,4.17
2018-09-02T20:15:17.504Z,4.22
2018-09-02T20:17:46.902Z,3.90
2018-09-02T20:20:15.628Z,4.55
2018-09-02T20:22:44.800Z,4.37
2018-09-02T20:25:13.334Z,4.03
2018-09-02T20:27:41.855Z,4.25
2018-09-02T20:30:10.280Z,5.03
2018-09-02T20:32:38.715Z,4.10
2018-09-02T20:35:07.090Z,4.00
2018-09-02T20:37:35.590Z,4.33
2018-09-02T20:40:04.186Z,4.60
2018-09-02T20:42:32.562Z,4.25
2018-09-02T20:45:00.955Z,4.47
2018-09-02T20:47:30.217Z,4.78
2018-09-02T20:49:58.631Z,4.33
2018-09-02T20:52:27.268Z,4.58
2018-09-02T20:54:55.677Z,4.65
2018-09-02T20:57:24.170Z,4.85
2018-09-02T20:59:52.648Z,4.87
2018-09-02T21:02:21.581Z,4.92
2018-09-02T21:04:50.121Z,4.53
2018-09-02T21:07:18.967Z,5.30
2018-09-02T21:09:47.685Z,5.00
2018-09-02T21:12:16.446Z,4.75
2018-09-02T21:14:46.204Z,4.97
2018-09-02T21:17:18.709Z,5.30
2018-09-02T21:20:15.306Z,5.37
2018-09-02T21:22:45.241Z,5.33
2018-09-02T21:25:21.180Z,5.17
2018-09-02T21:28:08.143Z,5.37
2018-09-02T21:30:54.083Z,5.33
2018-09-02T21:33:29.826Z,5.37
2018-09-02T21:35:58.417Z,5.62
2018-09-02T21:38:27.259Z,5.60
2018-09-02T21:40:57.448Z,5.30
2018-09-02T21:43:26.236Z,5.80
2018-09-02T21:45:55.290Z,5.80
2018-09-02T21:48:24.054Z,5.28
2018-09-02T21:50:52.614Z,6.20
2018-09-02T21:53:20.998Z,6.30
2018-09-02T21:55:49.448Z,5.72
2018-09-02T21:58:18.429Z,5.58
2018-09-02T22:00:47.880Z,5.60
2018-09-02T22:03:16.409Z,6.12
2018-09-02T22:05:44.889Z,5.47
2018-09-02T22:08:13.381Z,6.15
2018-09-02T22:10:41.933Z,5.92
2018-09-02T22:13:10.422Z,6.03
2018-09-02T22:15:38.930Z,5.95
2018-09-02T22:18:07.501Z,5.87
2018-09-02T22:20:35.852Z,5.97
2018-09-02T22:23:04.669Z,5.95
2018-09-02T22:25:33.086Z,6.03
2018-09-02T22:28:01.611Z,6.47
2018-09-02T22:30:30.134Z,6.05
2018-09-02T22:32:58.783Z,6.40
2018-09-02T22:35:27.340Z,6.25
2018-09-02T22:37:56.025Z,6.33
2018-09-02T22:40:24.413Z,6.08
2018-09-02T22:42:52.982Z,5.90
2018-09-02T22:45:21.677Z,6.42
2018-09-02T22:47:50.252Z,5.35
2018-09-02T22:50:18.916Z,5.97
2018-09-02T22:52:47.648Z,5.83
2018-09-02T22:55:16.093Z,5.80
2018-09-02T22:57:46.819Z,6.33
2018-09-02T23:00:15.660Z,6.15
2018-09-02T23:02:44.310Z,5.50
2018-09-02T23:05:12.707Z,6.17
2018-09-02T23:07:41.312Z,6.17
2018-09-02T23:10:09.745Z,5.42
2018-09-02T23:12:38.180Z,5.97
2018-09-02T23:15:06.788Z,5.90
2018-09-02T23:17:35.217Z,5.70
2018-09-02T23:20:03.876Z,5.67
2018-09-02T23:22:32.273Z,5.80
2018-09-02T23:25:00.865Z,5.78
2018-09-02T23:27:29.438Z,6.35
2018-09-02T23:29:57.974Z,5.55
2018-09-02T23:32:26.334Z,5.95
2018-09-02T23:34:54.675Z,5.53
2018-09-02T23:37:22.987Z,6.47
2018-09-02T23:39:51.364Z,5.70
2018-09-02T23:42:19.798Z,5.55
2018-09-02T23:44:48.126Z,6.50
2018-09-02T23:47:16.481Z,6.85
2018-09-02T23:49:44.881Z,6.50
2018-09-02T23:52:14.290Z,6.30
2018-09-02T23:54:42.731Z,6.42
2018-09-02T23:57:11.064Z,6.85
2018-09-02T23:59:39.464Z,6.85
